Flugplatz Pasewalk

EDCV · Mecklenburg-Vorpommern, 德国

使用的TAF站离机场有44 km的距离
2024年5月19日 17:002024年5月20日 02:00有效
时间
星期日
17:00
30%
星期日
18:00
30%
星期日
19:00
30%
星期日
20:00
>40%
星期日
21:00
>40%
星期日
22:00
>40%
星期日
23:00
星期一
00:00
30%
星期一
01:00
30%
代码
IFR
IFR
IFR
MVFR
MVFR
MVFR
VFR
IFR
IFR
天气
雷暴 雨 冰雹
雷暴 雨 冰雹
雷暴 雨 冰雹
几云
几云
几云
几云
薄雾
薄雾
能见度
3,5 km
3,5 km
3,5 km
10 km+
10 km+
10 km+
10 km+
3,5 km
3,5 km
天花板
-
-
-
-
-
-
-
-
-
100°
100°
100°
100°
100°
100°
050°
050°
050°
050°
050°
050°
050°
050°
050°
050°
050°
050°
速度
15 kt
15 kt
15 kt
5 kt
5 kt
5 kt
5 kt
5 kt
5 kt
阵风
25 kt
25 kt
25 kt
温度/星期日
21:06

原版的

TAF EDAH 191400Z 1915/1924 05005KT 9999 FEW040
TEMPO 1915/1921 SHRA BKN030CB
PROB30 TEMPO 1915/1918 10015G25KT 3500 TSRAGR
PROB30 TEMPO 1922/1924 3500 BR

TAF Flugplatz Pasewalk

Flugplatz Pasewalk是,德国中的小机场。 该机场位于纬度53,50558和经度13,94887。 该机场有一条跑道: 9/27. 本场的ICAO机场代码为EDCV。 机场在Bremen FIR中。

该航空气象观测是针对Heringsdorf Airport在2024年5月19日 16:00, 当地时间进行的。 从2024年5月19日 17:00到2024年5月20日 02:00, 当地时间有效.

预报

  • 在星期日 17:00和星期一 02:00之间

    • 风: 风来自050°方向,速度为5 kt。
    • 能见度: 10 km 或者更多
    • 乌云: 几云在4.000 ft的高度.
  • 暂时在星期日 17:00和23:00之间

    • 乌云: 碎云 积雨云在3.000 ft的高度.
  • 暂时在星期日 17:00和20:00之间 ({一个机会)

    • 风: 风来自100°方向,速度为15 kt。 预计25 kt阵风。
    • 能见度: 3,5 km
    • 天气: 雷暴 雨 冰雹
  • 暂时在星期一 00:00和02:00之间 ({一个机会)

    • 能见度: 3,5 km
    • 天气: 薄雾

白天

今天,太阳从04:56升起,在21:05降落。 这适用于Flugplatz Pasewalk,世界夏令时可能有所不同。 当地时间与世界标准时间之间的时差为+2 小时。 夏令时目前正在进行中。

报告变更